Time;durP1;ratioP1;P1;durP2;ratioP2;P2;SDS_P1;SDS_P2;PMS_P1;PMS_P2;Temp;Humidity;BMP_temperature;BMP_pressure;BME280_temperature;BME280_humidity;BME280_pressure;Samples;Min_cycle;Max_cycle;Signal;HPM_P1;HPM_P2
2021/01/08 00:00:25;;;;;;;15.63;14.13;;;;;;;-1.22;100.00;97593.59;4985695;28;20460;-68
2021/01/08 00:02:52;;;;;;;14.30;12.87;;;;;;;-1.21;100.00;97596.09;4983813;28;20216;-68
2021/01/08 00:05:19;;;;;;;19.20;17.43;;;;;;;-1.21;100.00;97588.31;4982387;28;20821;-68
2021/01/08 00:07:46;;;;;;;20.20;18.23;;;;;;;-1.22;100.00;97594.44;4982801;28;20445;-68
2021/01/08 00:10:14;;;;;;;16.07;14.50;;;;;;;-1.12;100.00;97592.09;4985235;28;20214;-68
2021/01/08 00:12:41;;;;;;;12.90;11.60;;;;;;;-1.10;100.00;97595.41;4982574;28;20449;-68
2021/01/08 00:15:09;;;;;;;15.70;12.40;;;;;;;-1.23;100.00;97595.38;4984859;28;20533;-69
2021/01/08 00:17:36;;;;;;;13.93;12.33;;;;;;;-1.23;100.00;97595.38;4985183;28;20743;-68
2021/01/08 00:20:04;;;;;;;13.33;11.93;;;;;;;-1.20;100.00;97584.78;4985438;28;20220;-68
2021/01/08 00:22:31;;;;;;;13.70;12.30;;;;;;;-1.25;100.00;97589.44;4985349;28;20585;-68
2021/01/08 00:24:58;;;;;;;15.20;13.40;;;;;;;-1.30;100.00;97581.13;4981753;28;20240;-68
2021/01/08 00:27:26;;;;;;;11.60;10.40;;;;;;;-1.19;100.00;97585.59;4984660;28;20210;-68
2021/01/08 00:29:53;;;;;;;15.57;12.60;;;;;;;-1.18;100.00;97585.50;4981499;28;20480;-67
2021/01/08 00:32:20;;;;;;;13.60;12.30;;;;;;;-1.13;100.00;97590.41;4984530;28;20360;-68
2021/01/08 00:34:48;;;;;;;19.93;17.93;;;;;;;-1.14;100.00;97582.69;4981445;28;21000;-69
2021/01/08 00:37:15;;;;;;;19.00;17.03;;;;;;;-1.10;100.00;97582.41;4984268;28;20495;-67
2021/01/08 00:39:44;;;;;;;23.40;20.60;;;;;;;-1.14;100.00;97580.91;4980764;28;20216;-69
2021/01/08 00:42:12;;;;;;;20.40;18.30;;;;;;;-1.12;100.00;97584.28;4984220;28;20313;-68
2021/01/08 00:44:39;;;;;;;21.53;18.80;;;;;;;-1.22;100.00;97578.00;4982760;28;20225;-67
2021/01/08 00:47:07;;;;;;;27.70;24.97;;;;;;;-1.21;100.00;97583.09;4984484;28;20205;-68
2021/01/08 00:49:35;;;;;;;20.73;18.57;;;;;;;-1.22;100.00;97573.63;4984280;28;20390;-69
2021/01/08 00:52:02;;;;;;;17.30;15.17;;;;;;;-1.25;100.00;97580.78;4984084;28;20216;-68
2021/01/08 00:54:29;;;;;;;29.23;24.50;;;;;;;-1.19;100.00;97581.25;4982082;28;20228;-68
2021/01/08 00:56:56;;;;;;;15.93;14.33;;;;;;;-1.21;100.00;97575.31;4981218;28;20212;-68
2021/01/08 00:59:23;;;;;;;16.83;14.77;;;;;;;-1.25;100.00;97581.63;4982729;28;20418;-68
2021/01/08 01:01:51;;;;;;;19.93;17.80;;;;;;;-1.25;100.00;97586.84;4983938;28;20441;-68
2021/01/08 01:04:18;;;;;;;16.70;14.77;;;;;;;-1.20;100.00;97594.31;4982260;28;20993;-68
2021/01/08 01:06:45;;;;;;;18.17;14.90;;;;;;;-1.19;100.00;97586.44;4983223;28;20237;-68
2021/01/08 01:09:12;;;;;;;41.03;33.17;;;;;;;-1.22;100.00;97589.25;4982966;28;20210;-68
2021/01/08 01:11:39;;;;;;;26.03;21.77;;;;;;;-1.26;100.00;97590.38;4982730;28;20275;-68
2021/01/08 01:14:07;;;;;;;17.40;15.57;;;;;;;-1.24;100.00;97590.25;4982700;28;21029;-68
2021/01/08 01:16:34;;;;;;;28.60;22.77;;;;;;;-1.27;100.00;97595.66;4983251;28;20197;-68
2021/01/08 01:19:03;;;;;;;20.63;17.40;;;;;;;-1.19;100.00;97599.44;4984013;28;20398;-68
2021/01/08 01:21:31;;;;;;;20.50;16.67;;;;;;;-1.32;100.00;97604.59;4979371;28;20202;-68
2021/01/08 01:23:57;;;;;;;19.07;16.97;;;;;;;-1.27;100.00;97603.47;4983967;28;20268;-67
2021/01/08 01:26:25;;;;;;;18.43;15.80;;;;;;;-1.33;100.00;97602.94;4983046;28;20491;-69
2021/01/08 01:28:52;;;;;;;20.40;15.87;;;;;;;-1.34;100.00;97610.81;4983800;28;20206;-68
2021/01/08 01:31:19;;;;;;;28.67;22.07;;;;;;;-1.35;100.00;97606.53;4984425;28;20220;-68
2021/01/08 01:33:46;;;;;;;15.43;13.80;;;;;;;-1.34;100.00;97603.00;4982440;28;20284;-68
2021/01/08 01:36:14;;;;;;;23.83;19.07;;;;;;;-1.31;100.00;97608.88;4982091;28;20216;-67
2021/01/08 01:38:41;;;;;;;19.03;17.03;;;;;;;-1.30;100.00;97609.72;4983069;28;20206;-68
2021/01/08 01:41:08;;;;;;;16.73;14.93;;;;;;;-1.38;100.00;97619.75;4981551;28;20217;-68
2021/01/08 01:43:35;;;;;;;14.63;13.13;;;;;;;-1.25;100.00;97614.59;4984024;28;20229;-68
2021/01/08 01:46:03;;;;;;;16.10;14.07;;;;;;;-1.26;100.00;97612.94;4983392;28;20233;-68
2021/01/08 01:48:30;;;;;;;13.73;12.20;;;;;;;-1.39;100.00;97611.13;4978968;28;21204;-68
2021/01/08 01:50:57;;;;;;;16.87;15.07;;;;;;;-1.39;100.00;97602.47;4980939;28;20467;-69
2021/01/08 01:53:25;;;;;;;23.63;18.87;;;;;;;-1.39;100.00;97599.88;4983291;28;20225;-68
2021/01/08 01:55:53;;;;;;;17.10;14.70;;;;;;;-1.37;100.00;97611.88;4981590;28;20228;-68
2021/01/08 01:58:22;;;;;;;15.13;13.43;;;;;;;-1.43;100.00;97606.22;4981467;28;20952;-69
2021/01/08 02:00:49;;;;;;;15.10;13.47;;;;;;;-1.39;100.00;97605.06;4980856;28;20207;-68
2021/01/08 02:03:20;;;;;;;14.10;12.70;;;;;;;-1.39;100.00;97605.94;4983635;28;20288;-68
2021/01/08 02:05:49;;;;;;;14.80;13.20;;;;;;;-1.37;100.00;97605.81;4979523;28;20821;-68
2021/01/08 02:08:19;;;;;;;15.47;12.70;;;;;;;-1.26;100.00;97613.78;4981804;28;20618;-68
2021/01/08 02:10:52;;;;;;;15.60;12.83;;;;;;;-1.34;100.00;97610.81;4981428;28;20460;-68
2021/01/08 02:13:23;;;;;;;15.17;13.53;;;;;;;-1.34;100.00;97613.41;4978058;28;20476;-67
2021/01/08 02:15:52;;;;;;;13.60;12.00;;;;;;;-1.31;100.00;97611.47;4979610;28;20377;-68
2021/01/08 02:18:19;;;;;;;13.97;12.50;;;;;;;-1.31;100.00;97613.25;4979765;28;20247;-67
2021/01/08 02:20:47;;;;;;;13.10;11.83;;;;;;;-1.22;100.00;97617.84;4981113;28;20210;-68
2021/01/08 02:23:24;;;;;;;14.07;12.67;;;;;;;-1.26;100.00;97613.78;4982344;28;20572;-68
2021/01/08 02:25:52;;;;;;;13.77;12.20;;;;;;;-1.28;100.00;97618.25;4981594;28;20507;-68
2021/01/08 02:28:22;;;;;;;12.10;10.53;;;;;;;-1.20;100.00;97615.13;4980145;28;20300;-68
2021/01/08 02:30:50;;;;;;;12.00;10.70;;;;;;;-1.21;100.00;97621.25;4979318;28;20225;-68
2021/01/08 02:33:18;;;;;;;12.57;11.27;;;;;;;-1.15;100.00;97620.03;4981916;28;20476;-68
2021/01/08 02:35:47;;;;;;;10.80;9.60;;;;;;;-1.08;100.00;97613.50;4980093;28;20567;-68
2021/01/08 02:38:16;;;;;;;11.93;10.33;;;;;;;-1.09;100.00;97620.50;4982563;28;20457;-68
2021/01/08 02:40:44;;;;;;;10.80;9.77;;;;;;;-1.13;100.00;97619.03;4983038;28;20229;-67
2021/01/08 02:43:13;;;;;;;12.07;10.30;;;;;;;-1.10;100.00;97612.78;4982160;28;20453;-68
2021/01/08 02:45:40;;;;;;;10.33;9.33;;;;;;;-1.17;100.00;97617.53;4979907;28;20720;-68
2021/01/08 02:48:08;;;;;;;9.47;8.50;;;;;;;-1.13;100.00;97615.56;4982299;28;20953;-68
2021/01/08 02:50:35;;;;;;;9.77;8.83;;;;;;;-1.23;100.00;97620.53;4982213;28;20453;-68
2021/01/08 02:53:05;;;;;;;9.60;8.80;;;;;;;-1.16;100.00;97614.00;4979178;28;20538;-67
2021/01/08 02:55:34;;;;;;;10.03;9.03;;;;;;;-1.29;100.00;97616.56;4983072;28;20444;-67
2021/01/08 02:58:03;;;;;;;10.03;9.03;;;;;;;-1.27;100.00;97614.72;4980790;28;20448;-67
2021/01/08 03:00:32;;;;;;;11.50;10.30;;;;;;;-1.31;100.00;97614.06;4976947;28;20445;-67
2021/01/08 03:03:00;;;;;;;9.33;8.33;;;;;;;-1.33;100.00;97622.88;4981732;28;20927;-67
2021/01/08 03:05:28;;;;;;;8.83;8.03;;;;;;;-1.37;100.00;97619.66;4981366;28;21123;-68
2021/01/08 03:07:55;;;;;;;8.27;7.43;;;;;;;-1.32;100.00;97614.19;4977123;28;20460;-67
2021/01/08 03:10:23;;;;;;;7.43;6.73;;;;;;;-1.34;99.80;97623.81;4977929;28;20910;-67
2021/01/08 03:12:53;;;;;;;7.67;6.93;;;;;;;-1.39;99.36;97612.88;4980832;28;20448;-67
2021/01/08 03:15:20;;;;;;;7.87;7.07;;;;;;;-1.35;99.10;97623.00;4981139;28;21065;-67
2021/01/08 03:17:48;;;;;;;8.33;7.53;;;;;;;-1.35;99.02;97617.78;4980119;28;20217;-68
2021/01/08 03:20:15;;;;;;;8.40;7.70;;;;;;;-1.32;99.78;97620.19;4977753;28;20492;-68
2021/01/08 03:22:42;;;;;;;8.90;8.10;;;;;;;-1.49;100.00;97621.28;4980542;28;20512;-67
2021/01/08 03:25:10;;;;;;;8.10;7.40;;;;;;;-1.48;100.00;97622.94;4979449;28;20742;-68
2021/01/08 03:27:37;;;;;;;8.90;8.00;;;;;;;-1.50;100.00;97614.41;4981585;28;20449;-68
2021/01/08 03:30:07;;;;;;;8.03;7.30;;;;;;;-1.54;100.00;97615.53;4982502;28;20975;-67
2021/01/08 03:32:35;;;;;;;8.20;7.30;;;;;;;-1.54;100.00;97620.72;4982559;28;20225;-68
2021/01/08 03:35:04;;;;;;;8.37;7.57;;;;;;;-1.50;99.66;97611.00;4978953;28;20469;-68
2021/01/08 03:37:31;;;;;;;6.80;6.17;;;;;;;-1.49;96.54;97623.88;4981523;28;20445;-68
2021/01/08 03:39:58;;;;;;;8.00;7.20;;;;;;;-1.53;96.86;97621.56;4980578;28;20214;-67
2021/01/08 03:42:25;;;;;;;6.70;6.10;;;;;;;-1.54;95.90;97625.09;4982053;28;20460;-67
2021/01/08 03:44:52;;;;;;;7.47;6.53;;;;;;;-1.39;95.44;97628.47;4979880;28;20645;-68
2021/01/08 03:47:19;;;;;;;6.77;6.17;;;;;;;-1.47;95.59;97631.59;4980335;28;20612;-68
2021/01/08 03:49:46;;;;;;;7.17;6.53;;;;;;;-1.40;93.65;97616.41;4982040;28;20539;-68
2021/01/08 03:52:14;;;;;;;6.90;6.30;;;;;;;-1.42;94.05;97624.31;4981231;28;20384;-67
2021/01/08 03:54:41;;;;;;;7.30;6.70;;;;;;;-1.42;92.99;97610.47;4981184;28;20472;-68
2021/01/08 03:57:08;;;;;;;6.60;6.00;;;;;;;-1.43;94.01;97614.84;4981712;28;20451;-68
2021/01/08 03:59:35;;;;;;;7.07;6.17;;;;;;;-1.49;94.96;97610.88;4978367;28;20449;-67
2021/01/08 04:02:05;;;;;;;6.60;6.00;;;;;;;-1.50;95.23;97616.19;4982021;28;20202;-68
2021/01/08 04:04:33;;;;;;;7.17;6.53;;;;;;;-1.54;94.80;97630.28;4980034;28;20465;-67
2021/01/08 04:07:00;;;;;;;6.93;6.23;;;;;;;-1.52;93.48;97621.47;4982311;28;20494;-68
2021/01/08 04:09:28;;;;;;;6.67;6.17;;;;;;;-1.47;93.63;97614.22;4980593;28;20455;-67
2021/01/08 04:11:55;;;;;;;5.87;5.27;;;;;;;-1.53;93.72;97625.00;4980927;28;20460;-68
2021/01/08 04:14:22;;;;;;;6.37;5.87;;;;;;;-1.55;92.89;97621.66;4979518;28;20237;-68
2021/01/08 04:16:49;;;;;;;6.13;5.63;;;;;;;-1.58;93.97;97624.47;4978034;28;20452;-68
2021/01/08 04:19:16;;;;;;;6.20;5.60;;;;;;;-1.55;93.20;97623.41;4981175;28;20455;-67
2021/01/08 04:21:45;;;;;;;6.20;5.70;;;;;;;-1.57;93.21;97618.31;4979447;28;20449;-67
2021/01/08 04:24:12;;;;;;;6.53;6.00;;;;;;;-1.56;92.71;97622.59;4978115;28;20579;-68
2021/01/08 04:26:40;;;;;;;6.27;5.73;;;;;;;-1.54;92.85;97618.13;4980958;28;20500;-67
2021/01/08 04:29:08;;;;;;;7.23;6.53;;;;;;;-1.67;92.47;97618.06;4979587;28;20222;-69
2021/01/08 04:31:35;;;;;;;7.30;6.60;;;;;;;-1.71;93.12;97619.19;4978156;28;20996;-68
2021/01/08 04:34:02;;;;;;;7.70;6.30;;;;;;;-1.76;95.35;97619.47;4979620;28;20320;-67
2021/01/08 04:36:30;;;;;;;6.90;6.27;;;;;;;-1.78;95.15;97612.72;4975353;28;20467;-68
2021/01/08 04:38:57;;;;;;;7.57;6.77;;;;;;;-1.81;96.13;97624.13;4973639;28;20706;-68
2021/01/08 04:41:24;;;;;;;7.03;6.47;;;;;;;-1.80;97.39;97625.78;4973711;28;20201;-68
2021/01/08 04:43:52;;;;;;;7.97;6.63;;;;;;;-1.91;97.54;97623.03;4983976;28;20814;-67
2021/01/08 04:46:20;;;;;;;8.03;7.27;;;;;;;-1.89;99.08;97626.38;4980093;28;20488;-69
2021/01/08 04:48:53;;;;;;;7.17;6.50;;;;;;;-1.91;97.82;97618.66;4981706;28;20481;-70
2021/01/08 04:51:20;;;;;;;7.07;6.43;;;;;;;-1.99;99.05;97622.69;4981594;28;20692;-68
2021/01/08 04:53:47;;;;;;;7.70;7.00;;;;;;;-2.11;99.18;97616.47;4981445;28;20460;-69
2021/01/08 04:56:15;;;;;;;7.77;7.07;;;;;;;-2.13;99.33;97623.50;4982415;28;20442;-68
2021/01/08 04:58:43;;;;;;;7.10;6.50;;;;;;;-2.14;100.00;97621.84;4982503;28;20260;-69
2021/01/08 05:01:11;;;;;;;7.93;7.10;;;;;;;-2.02;98.92;97620.28;4973607;28;20545;-68
2021/01/08 05:03:38;;;;;;;8.70;7.50;;;;;;;-1.99;99.06;97625.28;4974094;28;20469;-70
2021/01/08 05:06:05;;;;;;;7.40;6.70;;;;;;;-2.07;99.63;97621.38;4982067;28;20238;-68
2021/01/08 05:08:32;;;;;;;7.27;6.67;;;;;;;-2.10;99.34;97615.53;4979579;28;20852;-69
2021/01/08 05:11:19;;;;;;;8.40;7.67;;;;;;;-2.09;99.15;97612.00;4980410;28;20436;-70
2021/01/08 05:13:51;;;;;;;22.67;12.13;;;;;;;-2.08;98.69;97614.53;4977848;28;20857;-69
2021/01/08 05:16:20;;;;;;;16.17;11.80;;;;;;;-2.00;98.93;97616.63;4976338;28;20213;-69
2021/01/08 05:18:48;;;;;;;17.90;11.03;;;;;;;-2.06;99.99;97620.47;4977909;28;20448;-69
2021/01/08 05:21:15;;;;;;;14.50;10.40;;;;;;;-2.00;100.00;97618.41;4983489;28;20461;-69
2021/01/08 05:23:42;;;;;;;10.00;8.30;;;;;;;-1.97;100.00;97615.63;4982445;28;21004;-68
2021/01/08 05:26:12;;;;;;;8.80;7.90;;;;;;;-2.04;100.00;97616.00;4981762;28;20481;-70
2021/01/08 05:28:39;;;;;;;8.57;7.77;;;;;;;-2.08;100.00;97621.47;4980822;28;20794;-68
2021/01/08 05:31:08;;;;;;;8.37;7.57;;;;;;;-2.07;100.00;97615.34;4978283;28;20526;-69
2021/01/08 05:33:36;;;;;;;10.87;7.10;;;;;;;-1.98;100.00;97616.56;4978813;28;20494;-69
2021/01/08 05:36:04;;;;;;;8.13;7.40;;;;;;;-2.04;100.00;97615.16;4976569;28;20445;-69
2021/01/08 05:38:32;;;;;;;7.23;6.53;;;;;;;-2.02;100.00;97622.88;4977989;28;20444;-69
2021/01/08 05:41:03;;;;;;;8.03;7.27;;;;;;;-1.98;100.00;97624.34;4984146;28;20463;-69
2021/01/08 05:43:30;;;;;;;7.30;6.60;;;;;;;-1.86;100.00;97618.38;4980825;28;20468;-69
2021/01/08 05:46:15;;;;;;;8.00;7.20;;;;;;;-1.66;100.00;97618.91;4980064;28;20572;-69
2021/01/08 05:48:47;;;;;;;8.30;7.50;;;;;;;-1.84;100.00;97616.53;4979822;28;20609;-69
2021/01/08 05:51:16;;;;;;;8.47;7.67;;;;;;;-1.89;100.00;97626.38;4983221;28;20272;-69
2021/01/08 05:53:45;;;;;;;7.87;7.17;;;;;;;-1.73;100.00;97618.47;4982689;28;21000;-68
2021/01/08 05:56:16;;;;;;;8.70;7.87;;;;;;;-1.76;100.00;97624.66;4982787;28;20961;-69
2021/01/08 05:58:44;;;;;;;8.27;7.47;;;;;;;-1.62;100.00;97626.41;4984424;28;20506;-69
2021/01/08 06:01:12;;;;;;;8.07;7.37;;;;;;;-1.79;100.00;97630.06;4977680;28;20210;-70
2021/01/08 06:03:41;;;;;;;8.20;7.40;;;;;;;-1.72;100.00;97625.31;4983595;28;20473;-69
2021/01/08 06:06:10;;;;;;;8.23;7.43;;;;;;;-1.56;100.00;97625.19;4982997;28;20233;-69
2021/01/08 06:08:39;;;;;;;8.80;8.00;;;;;;;-1.62;100.00;97626.41;4981551;28;20206;-68
2021/01/08 06:11:07;;;;;;;9.10;8.13;;;;;;;-1.60;100.00;97621.13;4982258;28;20451;-68
2021/01/08 06:13:35;;;;;;;8.57;7.67;;;;;;;-1.61;100.00;97622.06;4974929;28;20217;-66
2021/01/08 06:16:04;;;;;;;8.80;7.67;;;;;;;-1.79;100.00;97629.22;4977513;28;20633;-68
2021/01/08 06:18:36;;;;;;;8.13;7.43;;;;;;;-1.73;100.00;97625.41;4978594;28;20440;-69
2021/01/08 06:21:05;;;;;;;9.73;8.83;;;;;;;-1.73;100.00;97631.44;4977758;28;20979;-68
2021/01/08 06:23:37;;;;;;;8.17;7.33;;;;;;;-1.81;99.82;97631.91;4974642;28;20499;-69
2021/01/08 06:26:10;;;;;;;8.27;7.20;;;;;;;-1.81;100.00;97637.09;4976912;28;20508;-68
2021/01/08 06:28:39;;;;;;;7.57;6.87;;;;;;;-1.76;100.00;97634.25;4976446;28;20468;-69
2021/01/08 06:31:25;;;;;;;8.53;7.73;;;;;;;-1.84;100.00;97637.31;4979068;28;20458;-68
2021/01/08 06:33:55;;;;;;;8.90;8.00;;;;;;;-1.83;100.00;97632.97;4980965;28;20464;-70
2021/01/08 06:36:23;;;;;;;8.57;7.77;;;;;;;-1.80;100.00;97630.16;4982733;28;20440;-69
2021/01/08 06:38:53;;;;;;;7.60;6.90;;;;;;;-1.84;100.00;97636.47;4979397;28;20213;-70
2021/01/08 06:41:21;;;;;;;7.87;7.17;;;;;;;-1.85;100.00;97640.00;4976611;28;20572;-68
2021/01/08 06:43:50;;;;;;;12.50;8.83;;;;;;;-1.82;100.00;97637.22;4979543;28;20485;-67
2021/01/08 06:46:28;;;;;;;8.73;7.50;;;;;;;-1.80;100.00;97636.19;4980293;28;20725;-68
2021/01/08 06:48:56;;;;;;;7.93;7.13;;;;;;;-1.70;100.00;97633.84;4975102;28;21145;-67
2021/01/08 06:51:27;;;;;;;8.63;7.77;;;;;;;-1.67;100.00;97632.84;4980908;28;20452;-68
2021/01/08 06:53:57;;;;;;;11.23;7.70;;;;;;;-1.63;100.00;97632.53;4980293;28;20471;-68
2021/01/08 06:56:34;;;;;;;8.50;7.60;;;;;;;-1.57;100.00;97633.91;4981075;28;21133;-68
2021/01/08 06:59:03;;;;;;;8.40;7.57;;;;;;;-1.50;100.00;97635.19;4982740;28;20444;-68
2021/01/08 07:01:52;;;;;;;8.57;7.40;;;;;;;-1.55;100.00;97634.66;4980735;28;20870;-67
2021/01/08 07:04:21;;;;;;;8.97;8.17;;;;;;;-1.52;100.00;97634.47;4980157;28;20583;-68
2021/01/08 07:06:49;;;;;;;8.43;7.63;;;;;;;-1.52;100.00;97636.22;4981575;28;20488;-69
2021/01/08 07:09:17;;;;;;;8.80;7.90;;;;;;;-1.55;100.00;97632.06;4980159;28;20206;-68
2021/01/08 07:11:44;;;;;;;9.13;8.23;;;;;;;-1.44;100.00;97633.13;4980042;28;20206;-68
2021/01/08 07:14:12;;;;;;;9.43;8.27;;;;;;;-1.47;100.00;97637.59;4981138;28;20226;-67
2021/01/08 07:16:43;;;;;;;8.33;7.50;;;;;;;-1.38;100.00;97636.19;4980254;28;21015;-67
2021/01/08 07:19:12;;;;;;;9.23;7.83;;;;;;;-1.36;100.00;97646.47;4976342;28;20496;-68
2021/01/08 07:21:47;;;;;;;8.57;7.67;;;;;;;-1.39;100.00;97651.88;4975651;28;20515;-67
2021/01/08 07:24:16;;;;;;;8.53;7.73;;;;;;;-1.44;100.00;97652.19;4977215;28;20243;-68
2021/01/08 07:26:43;;;;;;;8.93;7.87;;;;;;;-1.37;100.00;97650.00;4974529;28;20842;-67
2021/01/08 07:29:10;;;;;;;8.90;8.10;;;;;;;-1.46;100.00;97649.66;4978645;28;20201;-69
2021/01/08 07:31:38;;;;;;;8.23;7.53;;;;;;;-1.40;100.00;97651.06;4976566;28;20464;-69
2021/01/08 07:34:08;;;;;;;8.40;6.93;;;;;;;-1.33;100.00;97643.69;4980636;28;20321;-69
2021/01/08 07:36:35;;;;;;;8.40;7.50;;;;;;;-1.32;100.00;97659.19;4972869;28;20481;-69
2021/01/08 07:39:04;;;;;;;8.93;8.13;;;;;;;-1.19;100.00;97661.84;4973349;28;20221;-69
2021/01/08 07:41:37;;;;;;;8.63;7.80;;;;;;;-1.23;100.00;97662.97;4975415;28;20455;-69
2021/01/08 07:44:20;;;;;;;8.27;7.47;;;;;;;-1.21;100.00;97665.47;4974314;28;20478;-69
2021/01/08 07:46:47;;;;;;;8.20;7.40;;;;;;;-1.27;100.00;97671.91;4977869;28;21019;-69
2021/01/08 07:49:28;;;;;;;7.37;6.73;;;;;;;-1.08;100.00;97663.78;4980983;28;20592;-67
2021/01/08 07:51:55;;;;;;;8.47;7.63;;;;;;;-1.09;100.00;97663.84;4982154;28;20605;-69
2021/01/08 07:54:52;;;;;;;8.53;7.63;;;;;;;-1.12;100.00;97664.06;4979345;28;20635;-70
2021/01/08 07:57:20;;;;;;;8.63;7.90;;;;;;;-1.00;100.00;97673.66;4980815;28;20444;-68
2021/01/08 07:59:47;;;;;;;8.93;8.03;;;;;;;-1.04;100.00;97667.00;4981911;28;20210;-68
2021/01/08 08:02:14;;;;;;;10.83;8.53;;;;;;;-0.91;100.00;97673.09;4981704;28;20524;-69
2021/01/08 08:04:43;;;;;;;9.73;8.73;;;;;;;-1.03;100.00;97669.50;4978565;28;20229;-68
2021/01/08 08:07:13;;;;;;;8.53;7.83;;;;;;;-1.01;100.00;97666.78;4983426;28;20488;-69
2021/01/08 08:09:40;;;;;;;9.43;8.20;;;;;;;-0.91;100.00;97674.84;4983636;28;20698;-67
2021/01/08 08:12:11;;;;;;;8.57;7.67;;;;;;;-0.83;100.00;97680.38;4986948;28;20857;-69
2021/01/08 08:14:39;;;;;;;8.23;7.40;;;;;;;-0.78;100.00;97680.09;4980624;28;20226;-68
2021/01/08 08:17:07;;;;;;;8.53;7.67;;;;;;;-0.92;100.00;97676.63;4982301;28;20448;-68
2021/01/08 08:19:35;;;;;;;8.43;7.63;;;;;;;-0.75;100.00;97688.53;4984627;28;20701;-69
2021/01/08 08:22:03;;;;;;;8.53;7.73;;;;;;;-0.83;100.00;97688.16;4984484;28;20315;-67
2021/01/08 08:24:30;;;;;;;8.67;7.77;;;;;;;-0.71;100.00;97685.72;4980135;28;20237;-68
2021/01/08 08:26:57;;;;;;;10.63;7.57;;;;;;;-0.51;100.00;97690.44;4982287;28;20240;-67
2021/01/08 08:29:26;;;;;;;8.10;7.30;;;;;;;-0.52;100.00;97688.78;4983591;28;20205;-68
2021/01/08 08:31:54;;;;;;;8.43;7.60;;;;;;;-0.35;100.00;97686.84;4983309;28;20210;-68
2021/01/08 08:34:28;;;;;;;9.33;8.50;;;;;;;-0.46;100.00;97688.34;4981344;28;20252;-68
2021/01/08 08:37:05;;;;;;;10.97;9.00;;;;;;;-0.22;100.00;97689.41;4980394;28;20197;-68
2021/01/08 08:39:32;;;;;;;9.47;8.10;;;;;;;-0.25;99.96;97694.84;4974277;28;20473;-66
2021/01/08 08:41:59;;;;;;;9.07;8.20;;;;;;;-0.24;100.00;97693.91;4982341;28;20741;-67
2021/01/08 08:44:26;;;;;;;9.80;7.87;;;;;;;-0.07;100.00;97695.38;4980659;28;20730;-67
2021/01/08 08:46:55;;;;;;;9.27;8.47;;;;;;;0.01;100.00;97695.69;4979166;28;20233;-67
2021/01/08 08:49:25;;;;;;;8.00;7.30;;;;;;;0.19;100.00;97697.97;4983385;28;20217;-68
2021/01/08 08:51:53;;;;;;;8.50;7.63;;;;;;;0.03;98.12;97695.56;4980814;28;20206;-68
2021/01/08 08:54:21;;;;;;;10.80;7.87;;;;;;;0.10;98.14;97699.44;4983957;28;20659;-67
2021/01/08 08:56:52;;;;;;;9.03;7.73;;;;;;;0.01;97.47;97697.47;4981490;28;20206;-67
2021/01/08 08:59:35;;;;;;;8.20;7.37;;;;;;;0.10;97.04;97699.44;4979568;28;20214;-66
2021/01/08 09:02:04;;;;;;;8.13;7.33;;;;;;;0.25;95.54;97698.38;4980104;28;20209;-67
2021/01/08 09:04:31;;;;;;;8.83;7.10;;;;;;;0.16;95.06;97704.22;4982051;28;20232;-66
2021/01/08 09:07:00;;;;;;;8.27;7.33;;;;;;;0.32;96.01;97705.78;4979764;28;20225;-67
2021/01/08 09:09:29;;;;;;;8.17;7.37;;;;;;;0.50;93.43;97703.66;4984309;28;20209;-67
2021/01/08 09:12:17;;;;;;;8.40;7.67;;;;;;;0.68;93.41;97710.16;4979782;28;20224;-67
2021/01/08 09:14:46;;;;;;;8.17;7.40;;;;;;;0.54;92.82;97705.09;4979381;28;20218;-67
2021/01/08 09:17:16;;;;;;;8.13;7.33;;;;;;;0.63;92.36;97707.06;4979844;28;20221;-66
2021/01/08 09:19:49;;;;;;;8.23;7.53;;;;;;;0.69;93.41;97708.41;4982540;28;20212;-67
2021/01/08 09:22:20;;;;;;;8.30;7.40;;;;;;;0.42;92.96;97715.47;4979760;28;20697;-67
2021/01/08 09:24:50;;;;;;;8.20;7.50;;;;;;;0.64;95.55;97713.94;4974340;28;20229;-68
2021/01/08 09:27:21;;;;;;;8.63;7.87;;;;;;;0.55;91.63;97709.38;4978028;28;20214;-69
2021/01/08 09:29:48;;;;;;;8.80;8.00;;;;;;;0.44;91.89;97715.34;4976465;28;20449;-67
2021/01/08 09:32:31;;;;;;;8.90;7.87;;;;;;;0.50;93.13;97717.50;4983242;28;20449;-67
2021/01/08 09:35:18;;;;;;;7.97;7.20;;;;;;;0.30;92.31;97718.09;4977444;28;20303;-68
2021/01/08 09:37:49;;;;;;;8.63;7.73;;;;;;;0.19;95.39;97711.84;4977908;28;20206;-68
2021/01/08 09:40:18;;;;;;;8.33;7.37;;;;;;;0.19;94.02;97718.81;4982770;28;20220;-65
2021/01/08 09:42:46;;;;;;;8.30;7.50;;;;;;;0.17;92.46;97711.09;4980776;28;20246;-67
2021/01/08 09:45:23;;;;;;;8.43;7.63;;;;;;;0.18;93.79;97715.38;4983174;28;20318;-67
2021/01/08 09:47:52;;;;;;;7.53;6.83;;;;;;;-0.07;94.41;97713.59;4980031;28;20519;-67
2021/01/08 09:50:27;;;;;;;8.50;7.77;;;;;;;-0.18;94.08;97714.34;4982284;28;20209;-66
2021/01/08 09:52:59;;;;;;;8.57;7.77;;;;;;;0.04;95.31;97711.13;4983017;28;20245;-67
2021/01/08 09:55:27;;;;;;;8.00;7.30;;;;;;;0.07;94.75;97712.66;4978950;28;20208;-70
2021/01/08 09:57:56;;;;;;;8.77;7.97;;;;;;;0.05;94.74;97709.34;4978935;28;20228;-68
2021/01/08 10:00:31;;;;;;;8.27;7.47;;;;;;;0.24;94.80;97709.75;4980492;28;20224;-67
2021/01/08 10:03:04;;;;;;;8.57;7.77;;;;;;;0.43;92.98;97709.31;4979207;28;20357;-66
2021/01/08 10:05:32;;;;;;;8.60;7.73;;;;;;;0.27;93.94;97706.94;4982169;28;20213;-68
2021/01/08 10:08:01;;;;;;;8.00;7.30;;;;;;;0.34;93.48;97707.31;4981745;28;20241;-68
2021/01/08 10:10:39;;;;;;;8.13;7.37;;;;;;;0.50;93.80;97706.25;4979337;28;20544;-68
2021/01/08 10:13:14;;;;;;;8.07;7.37;;;;;;;0.68;93.16;97709.34;4981136;28;20295;-66
2021/01/08 10:15:43;;;;;;;8.60;7.70;;;;;;;0.51;92.18;97710.53;4980677;28;20208;-69
2021/01/08 10:18:12;;;;;;;8.40;7.60;;;;;;;0.52;92.22;97710.41;4981191;28;20233;-68
2021/01/08 10:20:44;;;;;;;8.47;7.67;;;;;;;0.64;91.76;97710.50;4980600;28;20256;-67
2021/01/08 10:23:11;;;;;;;7.97;7.37;;;;;;;0.39;91.96;97704.41;4978963;28;20844;-68
2021/01/08 10:25:39;;;;;;;7.77;6.87;;;;;;;0.40;92.13;97700.84;4982575;28;20237;-66
2021/01/08 10:28:16;;;;;;;7.87;7.17;;;;;;;0.35;91.26;97703.78;4980361;28;20715;-68
2021/01/08 10:30:44;;;;;;;8.20;7.40;;;;;;;0.45;92.25;97698.75;4982225;28;20212;-68
2021/01/08 10:33:12;;;;;;;7.40;6.47;;;;;;;0.42;92.24;97699.81;4980094;28;20221;-68
2021/01/08 10:35:44;;;;;;;8.90;7.57;;;;;;;0.56;90.95;97696.22;4981228;28;20204;-68
2021/01/08 10:38:11;;;;;;;7.20;6.50;;;;;;;0.54;90.35;97690.28;4980699;28;20205;-68
2021/01/08 10:40:38;;;;;;;8.27;7.57;;;;;;;0.56;91.38;97690.19;4982885;28;20233;-67
2021/01/08 10:43:05;;;;;;;7.07;6.43;;;;;;;0.68;90.08;97702.34;4981306;28;20206;-68
2021/01/08 10:45:32;;;;;;;6.87;6.33;;;;;;;0.59;90.89;97695.19;4977299;28;20678;-68
2021/01/08 10:47:59;;;;;;;7.70;6.70;;;;;;;0.53;91.34;97698.22;4980843;28;20229;-67
2021/01/08 10:50:27;;;;;;;7.10;6.40;;;;;;;0.28;92.79;97692.97;4981323;28;20205;-67
2021/01/08 10:52:54;;;;;;;6.53;5.93;;;;;;;0.31;92.19;97694.50;4977380;28;20594;-66
2021/01/08 10:55:25;;;;;;;7.53;6.83;;;;;;;0.31;94.00;97685.88;4973727;28;20202;-68
2021/01/08 10:57:52;;;;;;;7.50;6.90;;;;;;;0.21;93.63;97688.25;4979821;28;20198;-68
2021/01/08 11:00:21;;;;;;;7.60;7.00;;;;;;;0.33;94.52;97683.97;4982848;28;20216;-66
2021/01/08 11:02:50;;;;;;;7.60;6.83;;;;;;;0.26;93.54;97684.41;4980840;28;20697;-67
2021/01/08 11:05:18;;;;;;;7.40;6.70;;;;;;;0.27;93.90;97687.84;4981817;28;20638;-67
2021/01/08 11:07:47;;;;;;;7.40;6.80;;;;;;;0.40;94.91;97686.06;4982906;28;20240;-70
2021/01/08 11:10:15;;;;;;;6.27;5.77;;;;;;;0.48;92.63;97677.69;4980396;28;20934;-68
2021/01/08 11:12:42;;;;;;;7.57;6.87;;;;;;;0.38;94.70;97677.50;4978449;28;20236;-68
2021/01/08 11:15:10;;;;;;;6.50;5.90;;;;;;;0.30;95.24;97685.00;4979732;28;20320;-68
2021/01/08 11:17:37;;;;;;;6.50;5.90;;;;;;;0.42;96.48;97680.72;4982279;28;20213;-69
2021/01/08 11:20:05;;;;;;;7.47;6.77;;;;;;;0.46;96.36;97671.75;4975104;28;20964;-68
2021/01/08 11:22:32;;;;;;;6.73;6.23;;;;;;;0.57;95.28;97671.00;4973875;28;20241;-69
2021/01/08 11:25:01;;;;;;;7.03;6.47;;;;;;;0.63;94.51;97667.94;4975087;28;20237;-68
2021/01/08 11:27:28;;;;;;;6.50;6.00;;;;;;;0.74;92.54;97666.31;4980399;28;20248;-67
2021/01/08 11:29:55;;;;;;;7.20;6.57;;;;;;;0.68;93.00;97671.03;4977990;28;20236;-67
2021/01/08 11:32:22;;;;;;;6.20;5.70;;;;;;;0.24;93.78;97675.88;4983927;28;20291;-67
2021/01/08 11:34:49;;;;;;;6.20;5.70;;;;;;;0.31;95.51;97680.66;4978679;28;20241;-68